sensor_id;sensor_type;location;lat;lon;timestamp;P1;durP1;ratioP1;P2;durP2;ratioP2
52744;SDS011;38637;49.984;20.426;2023-04-24T00:01:14;12.47;;;9.63;;
52744;SDS011;38637;49.984;20.426;2023-04-24T00:03:40;10.50;;;9.40;;
52744;SDS011;38637;49.984;20.426;2023-04-24T00:06:06;13.20;;;10.10;;
52744;SDS011;38637;49.984;20.426;2023-04-24T00:08:33;13.30;;;9.75;;
52744;SDS011;38637;49.984;20.426;2023-04-24T00:10:58;12.40;;;9.50;;
52744;SDS011;38637;49.984;20.426;2023-04-24T00:13:24;16.20;;;10.50;;
52744;SDS011;38637;49.984;20.426;2023-04-24T00:15:49;11.37;;;10.17;;
52744;SDS011;38637;49.984;20.426;2023-04-24T00:18:15;11.97;;;9.70;;
52744;SDS011;38637;49.984;20.426;2023-04-24T00:20:40;11.73;;;10.00;;
52744;SDS011;38637;49.984;20.426;2023-04-24T00:23:06;12.47;;;9.90;;
52744;SDS011;38637;49.984;20.426;2023-04-24T00:25:31;11.40;;;9.70;;
52744;SDS011;38637;49.984;20.426;2023-04-24T00:27:57;12.07;;;9.93;;
52744;SDS011;38637;49.984;20.426;2023-04-24T00:30:22;10.17;;;9.13;;
52744;SDS011;38637;49.984;20.426;2023-04-24T00:32:47;15.43;;;9.90;;
52744;SDS011;38637;49.984;20.426;2023-04-24T00:35:13;14.27;;;10.67;;
52744;SDS011;38637;49.984;20.426;2023-04-24T00:37:39;13.75;;;10.75;;
52744;SDS011;38637;49.984;20.426;2023-04-24T00:40:05;23.43;;;10.60;;
52744;SDS011;38637;49.984;20.426;2023-04-24T00:42:31;15.15;;;10.45;;
52744;SDS011;38637;49.984;20.426;2023-04-24T00:44:56;13.63;;;9.77;;
52744;SDS011;38637;49.984;20.426;2023-04-24T00:47:23;15.00;;;10.20;;
52744;SDS011;38637;49.984;20.426;2023-04-24T00:49:50;14.15;;;9.63;;
52744;SDS011;38637;49.984;20.426;2023-04-24T00:52:15;14.20;;;9.67;;
52744;SDS011;38637;49.984;20.426;2023-04-24T00:54:43;11.25;;;8.65;;
52744;SDS011;38637;49.984;20.426;2023-04-24T00:57:10;16.13;;;9.95;;
52744;SDS011;38637;49.984;20.426;2023-04-24T00:59:35;11.37;;;9.43;;
52744;SDS011;38637;49.984;20.426;2023-04-24T01:02:01;12.67;;;9.80;;
52744;SDS011;38637;49.984;20.426;2023-04-24T01:04:27;16.60;;;9.63;;
52744;SDS011;38637;49.984;20.426;2023-04-24T01:06:52;12.40;;;9.70;;
52744;SDS011;38637;49.984;20.426;2023-04-24T01:09:19;9.88;;;8.82;;
52744;SDS011;38637;49.984;20.426;2023-04-24T01:11:46;10.63;;;8.57;;
52744;SDS011;38637;49.984;20.426;2023-04-24T01:14:12;10.47;;;9.47;;
52744;SDS011;38637;49.984;20.426;2023-04-24T01:16:37;11.70;;;9.77;;
52744;SDS011;38637;49.984;20.426;2023-04-24T01:19:03;10.07;;;9.03;;
52744;SDS011;38637;49.984;20.426;2023-04-24T01:21:29;11.57;;;8.98;;
52744;SDS011;38637;49.984;20.426;2023-04-24T01:23:55;11.73;;;9.30;;
52744;SDS011;38637;49.984;20.426;2023-04-24T01:26:22;11.27;;;9.10;;
52744;SDS011;38637;49.984;20.426;2023-04-24T01:28:48;10.88;;;8.05;;
52744;SDS011;38637;49.984;20.426;2023-04-24T01:31:14;11.37;;;9.37;;
52744;SDS011;38637;49.984;20.426;2023-04-24T01:33:41;9.95;;;8.95;;
52744;SDS011;38637;49.984;20.426;2023-04-24T01:36:07;9.77;;;8.70;;
52744;SDS011;38637;49.984;20.426;2023-04-24T01:38:35;10.82;;;8.80;;
52744;SDS011;38637;49.984;20.426;2023-04-24T01:41:00;11.77;;;9.27;;
52744;SDS011;38637;49.984;20.426;2023-04-24T01:43:26;11.10;;;9.30;;
52744;SDS011;38637;49.984;20.426;2023-04-24T01:45:51;9.53;;;8.50;;
52744;SDS011;38637;49.984;20.426;2023-04-24T01:48:16;9.43;;;8.43;;
52744;SDS011;38637;49.984;20.426;2023-04-24T01:50:42;12.33;;;8.37;;
52744;SDS011;38637;49.984;20.426;2023-04-24T01:53:08;11.30;;;8.23;;
52744;SDS011;38637;49.984;20.426;2023-04-24T01:55:33;10.20;;;8.53;;
52744;SDS011;38637;49.984;20.426;2023-04-24T01:57:59;9.93;;;8.90;;
52744;SDS011;38637;49.984;20.426;2023-04-24T02:00:24;11.97;;;8.67;;
52744;SDS011;38637;49.984;20.426;2023-04-24T02:02:50;12.13;;;9.83;;
52744;SDS011;38637;49.984;20.426;2023-04-24T02:05:15;11.17;;;9.63;;
52744;SDS011;38637;49.984;20.426;2023-04-24T02:07:41;10.30;;;9.17;;
52744;SDS011;38637;49.984;20.426;2023-04-24T02:10:06;15.60;;;11.47;;
52744;SDS011;38637;49.984;20.426;2023-04-24T02:12:32;12.00;;;10.33;;
52744;SDS011;38637;49.984;20.426;2023-04-24T02:14:57;14.37;;;10.50;;
52744;SDS011;38637;49.984;20.426;2023-04-24T02:17:23;16.50;;;10.77;;
52744;SDS011;38637;49.984;20.426;2023-04-24T02:19:48;25.10;;;11.40;;
52744;SDS011;38637;49.984;20.426;2023-04-24T02:22:14;12.73;;;10.50;;
52744;SDS011;38637;49.984;20.426;2023-04-24T02:24:39;14.37;;;11.17;;
52744;SDS011;38637;49.984;20.426;2023-04-24T02:27:05;12.93;;;10.43;;
52744;SDS011;38637;49.984;20.426;2023-04-24T02:29:30;11.60;;;10.40;;
52744;SDS011;38637;49.984;20.426;2023-04-24T02:31:56;14.00;;;10.50;;
52744;SDS011;38637;49.984;20.426;2023-04-24T02:34:21;12.73;;;9.60;;
52744;SDS011;38637;49.984;20.426;2023-04-24T02:36:47;13.82;;;11.02;;
52744;SDS011;38637;49.984;20.426;2023-04-24T02:39:13;12.70;;;10.53;;
52744;SDS011;38637;49.984;20.426;2023-04-24T02:41:41;13.32;;;9.95;;
52744;SDS011;38637;49.984;20.426;2023-04-24T02:44:06;10.63;;;9.60;;
52744;SDS011;38637;49.984;20.426;2023-04-24T02:46:32;10.80;;;9.70;;
52744;SDS011;38637;49.984;20.426;2023-04-24T02:48:57;16.33;;;10.63;;
52744;SDS011;38637;49.984;20.426;2023-04-24T02:51:22;14.83;;;11.03;;
52744;SDS011;38637;49.984;20.426;2023-04-24T02:53:48;14.87;;;10.77;;
52744;SDS011;38637;49.984;20.426;2023-04-24T02:56:13;11.40;;;9.70;;
52744;SDS011;38637;49.984;20.426;2023-04-24T02:58:39;11.53;;;10.27;;
52744;SDS011;38637;49.984;20.426;2023-04-24T03:01:04;14.60;;;11.67;;
52744;SDS011;38637;49.984;20.426;2023-04-24T03:03:29;14.43;;;11.73;;
52744;SDS011;38637;49.984;20.426;2023-04-24T03:05:55;16.13;;;11.30;;
52744;SDS011;38637;49.984;20.426;2023-04-24T03:08:20;13.60;;;11.17;;
52744;SDS011;38637;49.984;20.426;2023-04-24T03:10:46;18.67;;;11.83;;
52744;SDS011;38637;49.984;20.426;2023-04-24T03:13:11;14.10;;;10.57;;
52744;SDS011;38637;49.984;20.426;2023-04-24T03:15:36;23.70;;;11.57;;
52744;SDS011;38637;49.984;20.426;2023-04-24T03:18:01;17.23;;;11.13;;
52744;SDS011;38637;49.984;20.426;2023-04-24T03:20:27;14.47;;;11.10;;
52744;SDS011;38637;49.984;20.426;2023-04-24T03:22:53;20.63;;;11.80;;
52744;SDS011;38637;49.984;20.426;2023-04-24T03:25:18;19.47;;;12.50;;
52744;SDS011;38637;49.984;20.426;2023-04-24T03:27:43;14.37;;;12.23;;
52744;SDS011;38637;49.984;20.426;2023-04-24T03:30:08;18.13;;;12.03;;
52744;SDS011;38637;49.984;20.426;2023-04-24T03:32:34;13.77;;;10.93;;
52744;SDS011;38637;49.984;20.426;2023-04-24T03:34:59;17.60;;;11.43;;
52744;SDS011;38637;49.984;20.426;2023-04-24T03:37:25;18.57;;;11.47;;
52744;SDS011;38637;49.984;20.426;2023-04-24T03:39:51;27.40;;;12.40;;
52744;SDS011;38637;49.984;20.426;2023-04-24T03:42:17;27.20;;;12.40;;
52744;SDS011;38637;49.984;20.426;2023-04-24T03:44:42;20.43;;;13.20;;
52744;SDS011;38637;49.984;20.426;2023-04-24T03:47:07;16.10;;;11.93;;
52744;SDS011;38637;49.984;20.426;2023-04-24T03:49:33;36.43;;;12.27;;
52744;SDS011;38637;49.984;20.426;2023-04-24T03:51:58;17.70;;;12.13;;
52744;SDS011;38637;49.984;20.426;2023-04-24T03:54:23;17.57;;;11.93;;
52744;SDS011;38637;49.984;20.426;2023-04-24T03:56:49;26.90;;;11.93;;
52744;SDS011;38637;49.984;20.426;2023-04-24T03:59:14;17.90;;;10.90;;
52744;SDS011;38637;49.984;20.426;2023-04-24T04:01:39;19.70;;;11.37;;
52744;SDS011;38637;49.984;20.426;2023-04-24T04:04:05;23.30;;;11.00;;
52744;SDS011;38637;49.984;20.426;2023-04-24T04:06:31;35.42;;;12.48;;
52744;SDS011;38637;49.984;20.426;2023-04-24T04:08:57;20.60;;;11.10;;
52744;SDS011;38637;49.984;20.426;2023-04-24T04:11:22;17.77;;;11.17;;
52744;SDS011;38637;49.984;20.426;2023-04-24T04:13:48;16.45;;;11.73;;
52744;SDS011;38637;49.984;20.426;2023-04-24T04:16:14;29.20;;;12.87;;
52744;SDS011;38637;49.984;20.426;2023-04-24T04:18:41;24.10;;;13.23;;
52744;SDS011;38637;49.984;20.426;2023-04-24T04:21:07;20.87;;;12.13;;
52744;SDS011;38637;49.984;20.426;2023-04-24T04:23:32;16.57;;;10.77;;
52744;SDS011;38637;49.984;20.426;2023-04-24T04:25:58;28.77;;;12.90;;
52744;SDS011;38637;49.984;20.426;2023-04-24T04:28:23;21.37;;;13.40;;
52744;SDS011;38637;49.984;20.426;2023-04-24T04:30:49;18.70;;;10.90;;
52744;SDS011;38637;49.984;20.426;2023-04-24T04:33:18;18.38;;;11.40;;
52744;SDS011;38637;49.984;20.426;2023-04-24T04:35:44;24.47;;;13.57;;
52744;SDS011;38637;49.984;20.426;2023-04-24T04:38:09;17.77;;;10.57;;
52744;SDS011;38637;49.984;20.426;2023-04-24T04:40:35;16.02;;;11.27;;
52744;SDS011;38637;49.984;20.426;2023-04-24T04:43:01;14.00;;;10.83;;
52744;SDS011;38637;49.984;20.426;2023-04-24T04:45:27;21.77;;;11.65;;
52744;SDS011;38637;49.984;20.426;2023-04-24T04:47:53;19.63;;;11.43;;
52744;SDS011;38637;49.984;20.426;2023-04-24T04:50:20;18.65;;;9.95;;
52744;SDS011;38637;49.984;20.426;2023-04-24T04:52:45;14.87;;;8.17;;
52744;SDS011;38637;49.984;20.426;2023-04-24T04:55:11;16.73;;;8.70;;
52744;SDS011;38637;49.984;20.426;2023-04-24T04:57:38;13.10;;;9.32;;
52744;SDS011;38637;49.984;20.426;2023-04-24T05:00:04;16.30;;;9.88;;
52744;SDS011;38637;49.984;20.426;2023-04-24T05:02:30;20.90;;;9.82;;
52744;SDS011;38637;49.984;20.426;2023-04-24T05:04:55;20.87;;;9.20;;
52744;SDS011;38637;49.984;20.426;2023-04-24T05:07:21;16.53;;;9.37;;
52744;SDS011;38637;49.984;20.426;2023-04-24T05:09:46;12.67;;;9.00;;
52744;SDS011;38637;49.984;20.426;2023-04-24T05:12:12;15.07;;;8.23;;
52744;SDS011;38637;49.984;20.426;2023-04-24T05:14:37;11.53;;;8.90;;
52744;SDS011;38637;49.984;20.426;2023-04-24T05:17:02;10.10;;;7.30;;
52744;SDS011;38637;49.984;20.426;2023-04-24T05:19:28;11.70;;;7.10;;
52744;SDS011;38637;49.984;20.426;2023-04-24T05:21:53;10.73;;;5.70;;
52744;SDS011;38637;49.984;20.426;2023-04-24T05:24:18;7.70;;;5.13;;
52744;SDS011;38637;49.984;20.426;2023-04-24T05:26:43;7.73;;;4.33;;
52744;SDS011;38637;49.984;20.426;2023-04-24T05:29:09;4.93;;;4.13;;
52744;SDS011;38637;49.984;20.426;2023-04-24T05:31:34;3.70;;;3.40;;
52744;SDS011;38637;49.984;20.426;2023-04-24T05:33:59;6.63;;;3.20;;
52744;SDS011;38637;49.984;20.426;2023-04-24T05:36:25;6.10;;;3.63;;
52744;SDS011;38637;49.984;20.426;2023-04-24T05:38:52;9.02;;;3.58;;
52744;SDS011;38637;49.984;20.426;2023-04-24T05:41:17;5.10;;;3.97;;
52744;SDS011;38637;49.984;20.426;2023-04-24T05:43:42;6.80;;;3.50;;
52744;SDS011;38637;49.984;20.426;2023-04-24T05:46:07;7.47;;;3.20;;
52744;SDS011;38637;49.984;20.426;2023-04-24T05:48:33;5.07;;;2.90;;
52744;SDS011;38637;49.984;20.426;2023-04-24T05:50:58;6.83;;;3.07;;
52744;SDS011;38637;49.984;20.426;2023-04-24T05:53:23;6.30;;;2.63;;
52744;SDS011;38637;49.984;20.426;2023-04-24T05:55:49;4.03;;;3.57;;
52744;SDS011;38637;49.984;20.426;2023-04-24T05:58:14;3.80;;;2.70;;
52744;SDS011;38637;49.984;20.426;2023-04-24T06:00:40;3.37;;;2.97;;
52744;SDS011;38637;49.984;20.426;2023-04-24T06:03:07;5.43;;;3.40;;
52744;SDS011;38637;49.984;20.426;2023-04-24T06:05:33;3.70;;;3.03;;
52744;SDS011;38637;49.984;20.426;2023-04-24T06:07:58;5.63;;;3.00;;
52744;SDS011;38637;49.984;20.426;2023-04-24T06:10:23;4.37;;;3.10;;
52744;SDS011;38637;49.984;20.426;2023-04-24T06:12:49;5.27;;;2.70;;
52744;SDS011;38637;49.984;20.426;2023-04-24T06:15:14;3.70;;;3.00;;
52744;SDS011;38637;49.984;20.426;2023-04-24T06:17:40;7.33;;;2.90;;
52744;SDS011;38637;49.984;20.426;2023-04-24T06:20:05;7.73;;;2.80;;
52744;SDS011;38637;49.984;20.426;2023-04-24T06:22:31;4.65;;;2.78;;
52744;SDS011;38637;49.984;20.426;2023-04-24T06:24:57;5.17;;;2.87;;
52744;SDS011;38637;49.984;20.426;2023-04-24T06:27:22;5.70;;;2.70;;
52744;SDS011;38637;49.984;20.426;2023-04-24T06:29:47;8.40;;;2.83;;
52744;SDS011;38637;49.984;20.426;2023-04-24T06:32:19;7.78;;;3.50;;
52744;SDS011;38637;49.984;20.426;2023-04-24T06:34:45;3.55;;;2.85;;
52744;SDS011;38637;49.984;20.426;2023-04-24T06:37:10;9.00;;;3.37;;
52744;SDS011;38637;49.984;20.426;2023-04-24T06:39:35;10.17;;;3.70;;
52744;SDS011;38637;49.984;20.426;2023-04-24T06:42:01;7.30;;;3.27;;
52744;SDS011;38637;49.984;20.426;2023-04-24T06:44:26;5.27;;;3.60;;
52744;SDS011;38637;49.984;20.426;2023-04-24T06:46:51;6.13;;;2.47;;
52744;SDS011;38637;49.984;20.426;2023-04-24T06:49:17;3.63;;;2.97;;
52744;SDS011;38637;49.984;20.426;2023-04-24T06:51:42;4.57;;;3.40;;
52744;SDS011;38637;49.984;20.426;2023-04-24T06:54:07;5.50;;;3.03;;
52744;SDS011;38637;49.984;20.426;2023-04-24T06:56:33;6.07;;;2.27;;
52744;SDS011;38637;49.984;20.426;2023-04-24T06:58:59;6.75;;;2.75;;
52744;SDS011;38637;49.984;20.426;2023-04-24T07:01:24;2.67;;;2.27;;
52744;SDS011;38637;49.984;20.426;2023-04-24T07:03:50;7.90;;;2.60;;
52744;SDS011;38637;49.984;20.426;2023-04-24T07:06:15;5.03;;;2.70;;
52744;SDS011;38637;49.984;20.426;2023-04-24T07:08:43;8.65;;;2.47;;
52744;SDS011;38637;49.984;20.426;2023-04-24T07:11:08;5.17;;;2.30;;
52744;SDS011;38637;49.984;20.426;2023-04-24T07:13:34;5.80;;;3.53;;
52744;SDS011;38637;49.984;20.426;2023-04-24T07:16:00;6.90;;;2.30;;
52744;SDS011;38637;49.984;20.426;2023-04-24T07:18:25;8.10;;;3.33;;
52744;SDS011;38637;49.984;20.426;2023-04-24T07:20:51;9.97;;;2.43;;
52744;SDS011;38637;49.984;20.426;2023-04-24T07:23:17;4.13;;;2.50;;
52744;SDS011;38637;49.984;20.426;2023-04-24T07:28:08;3.90;;;2.10;;
52744;SDS011;38637;49.984;20.426;2023-04-24T07:30:33;18.37;;;3.53;;
52744;SDS011;38637;49.984;20.426;2023-04-24T07:32:59;18.63;;;3.67;;
52744;SDS011;38637;49.984;20.426;2023-04-24T07:35:25;9.30;;;3.05;;
52744;SDS011;38637;49.984;20.426;2023-04-24T07:37:54;4.38;;;2.03;;
52744;SDS011;38637;49.984;20.426;2023-04-24T07:40:20;8.00;;;2.63;;
52744;SDS011;38637;49.984;20.426;2023-04-24T07:42:46;7.40;;;2.60;;
52744;SDS011;38637;49.984;20.426;2023-04-24T07:45:13;9.23;;;1.80;;
52744;SDS011;38637;49.984;20.426;2023-04-24T07:47:39;21.52;;;2.92;;
52744;SDS011;38637;49.984;20.426;2023-04-24T07:50:05;8.63;;;2.30;;
52744;SDS011;38637;49.984;20.426;2023-04-24T07:52:30;6.38;;;2.42;;
52744;SDS011;38637;49.984;20.426;2023-04-24T07:54:56;8.20;;;2.63;;
52744;SDS011;38637;49.984;20.426;2023-04-24T07:57:25;8.52;;;3.03;;
52744;SDS011;38637;49.984;20.426;2023-04-24T07:59:50;4.07;;;2.50;;
52744;SDS011;38637;49.984;20.426;2023-04-24T08:02:16;2.07;;;1.87;;
52744;SDS011;38637;49.984;20.426;2023-04-24T08:04:41;4.83;;;2.50;;
52744;SDS011;38637;49.984;20.426;2023-04-24T08:07:07;3.70;;;2.40;;
52744;SDS011;38637;49.984;20.426;2023-04-24T08:09:33;6.00;;;2.53;;
52744;SDS011;38637;49.984;20.426;2023-04-24T08:11:58;4.60;;;2.40;;
52744;SDS011;38637;49.984;20.426;2023-04-24T08:14:23;7.97;;;2.30;;
52744;SDS011;38637;49.984;20.426;2023-04-24T08:16:49;8.20;;;2.90;;
52744;SDS011;38637;49.984;20.426;2023-04-24T08:19:14;5.40;;;2.43;;
52744;SDS011;38637;49.984;20.426;2023-04-24T08:21:40;6.47;;;2.53;;
52744;SDS011;38637;49.984;20.426;2023-04-24T08:24:05;6.43;;;2.50;;
52744;SDS011;38637;49.984;20.426;2023-04-24T08:26:32;3.88;;;2.20;;
52744;SDS011;38637;49.984;20.426;2023-04-24T08:28:58;1.87;;;1.70;;
52744;SDS011;38637;49.984;20.426;2023-04-24T08:31:23;6.53;;;2.50;;
52744;SDS011;38637;49.984;20.426;2023-04-24T08:33:50;5.35;;;2.45;;
52744;SDS011;38637;49.984;20.426;2023-04-24T08:36:15;7.17;;;2.93;;
52744;SDS011;38637;49.984;20.426;2023-04-24T08:38:40;5.23;;;2.30;;
52744;SDS011;38637;49.984;20.426;2023-04-24T08:41:07;5.82;;;2.60;;
52744;SDS011;38637;49.984;20.426;2023-04-24T08:43:33;3.30;;;1.93;;
52744;SDS011;38637;49.984;20.426;2023-04-24T08:46:01;4.75;;;2.15;;
52744;SDS011;38637;49.984;20.426;2023-04-24T08:48:27;5.95;;;2.22;;
52744;SDS011;38637;49.984;20.426;2023-04-24T08:50:53;2.45;;;2.15;;
52744;SDS011;38637;49.984;20.426;2023-04-24T08:53:19;7.03;;;2.65;;
52744;SDS011;38637;49.984;20.426;2023-04-24T08:55:46;5.70;;;2.23;;
52744;SDS011;38637;49.984;20.426;2023-04-24T08:58:13;5.90;;;2.10;;
52744;SDS011;38637;49.984;20.426;2023-04-24T09:00:40;4.35;;;2.20;;
52744;SDS011;38637;49.984;20.426;2023-04-24T09:03:11;3.88;;;2.05;;
52744;SDS011;38637;49.984;20.426;2023-04-24T09:08:05;7.85;;;2.45;;
52744;SDS011;38637;49.984;20.426;2023-04-24T09:10:32;6.38;;;2.72;;
52744;SDS011;38637;49.984;20.426;2023-04-24T09:12:59;5.68;;;2.50;;
52744;SDS011;38637;49.984;20.426;2023-04-24T09:15:27;5.50;;;2.25;;
52744;SDS011;38637;49.984;20.426;2023-04-24T09:17:52;3.72;;;2.00;;
52744;SDS011;38637;49.984;20.426;2023-04-24T09:20:18;6.23;;;2.37;;
52744;SDS011;38637;49.984;20.426;2023-04-24T09:22:43;3.50;;;2.57;;
52744;SDS011;38637;49.984;20.426;2023-04-24T09:27:38;3.35;;;1.98;;
52744;SDS011;38637;49.984;20.426;2023-04-24T09:30:07;9.13;;;2.10;;
52744;SDS011;38637;49.984;20.426;2023-04-24T09:32:33;3.45;;;2.13;;
52744;SDS011;38637;49.984;20.426;2023-04-24T09:35:06;3.93;;;2.47;;
52744;SDS011;38637;49.984;20.426;2023-04-24T09:37:34;4.65;;;2.45;;
52744;SDS011;38637;49.984;20.426;2023-04-24T09:40:10;6.35;;;2.22;;
52744;SDS011;38637;49.984;20.426;2023-04-24T09:42:55;6.47;;;2.00;;
52744;SDS011;38637;49.984;20.426;2023-04-24T09:45:27;4.80;;;2.13;;
52744;SDS011;38637;49.984;20.426;2023-04-24T09:48:00;4.93;;;2.42;;
52744;SDS011;38637;49.984;20.426;2023-04-24T09:50:25;2.83;;;2.03;;
52744;SDS011;38637;49.984;20.426;2023-04-24T09:52:57;7.07;;;2.37;;
52744;SDS011;38637;49.984;20.426;2023-04-24T09:55:24;5.53;;;2.17;;
52744;SDS011;38637;49.984;20.426;2023-04-24T09:58:00;3.30;;;2.33;;
52744;SDS011;38637;49.984;20.426;2023-04-24T10:00:29;5.95;;;2.38;;
52744;SDS011;38637;49.984;20.426;2023-04-24T10:03:01;3.70;;;2.22;;
52744;SDS011;38637;49.984;20.426;2023-04-24T10:05:31;6.75;;;2.35;;
52744;SDS011;38637;49.984;20.426;2023-04-24T10:08:02;4.55;;;2.72;;
52744;SDS011;38637;49.984;20.426;2023-04-24T10:10:29;11.90;;;3.05;;
52744;SDS011;38637;49.984;20.426;2023-04-24T10:12:56;9.48;;;2.83;;
52744;SDS011;38637;49.984;20.426;2023-04-24T10:15:22;2.67;;;2.47;;
52744;SDS011;38637;49.984;20.426;2023-04-24T10:17:48;6.10;;;2.63;;
52744;SDS011;38637;49.984;20.426;2023-04-24T10:20:24;5.32;;;2.58;;
52744;SDS011;38637;49.984;20.426;2023-04-24T10:22:52;5.13;;;1.95;;
52744;SDS011;38637;49.984;20.426;2023-04-24T10:25:19;4.10;;;2.25;;
52744;SDS011;38637;49.984;20.426;2023-04-24T10:27:46;4.32;;;2.10;;
52744;SDS011;38637;49.984;20.426;2023-04-24T10:30:12;3.25;;;2.30;;
52744;SDS011;38637;49.984;20.426;2023-04-24T10:35:05;8.47;;;2.67;;
52744;SDS011;38637;49.984;20.426;2023-04-24T10:37:36;5.60;;;2.00;;
52744;SDS011;38637;49.984;20.426;2023-04-24T10:40:11;4.10;;;2.22;;
52744;SDS011;38637;49.984;20.426;2023-04-24T10:42:43;4.45;;;2.00;;
52744;SDS011;38637;49.984;20.426;2023-04-24T10:45:18;3.45;;;2.17;;
52744;SDS011;38637;49.984;20.426;2023-04-24T10:47:59;4.65;;;2.10;;
52744;SDS011;38637;49.984;20.426;2023-04-24T10:50:27;5.40;;;2.20;;
52744;SDS011;38637;49.984;20.426;2023-04-24T10:52:52;4.85;;;3.05;;
52744;SDS011;38637;49.984;20.426;2023-04-24T10:58:23;5.68;;;3.63;;
52744;SDS011;38637;49.984;20.426;2023-04-24T11:00:56;3.17;;;1.90;;
52744;SDS011;38637;49.984;20.426;2023-04-24T11:03:24;4.78;;;2.00;;
52744;SDS011;38637;49.984;20.426;2023-04-24T11:05:51;5.97;;;2.53;;
52744;SDS011;38637;49.984;20.426;2023-04-24T11:08:40;7.25;;;2.40;;
52744;SDS011;38637;49.984;20.426;2023-04-24T11:11:09;4.70;;;2.40;;
52744;SDS011;38637;49.984;20.426;2023-04-24T11:16:21;5.38;;;2.20;;
52744;SDS011;38637;49.984;20.426;2023-04-24T11:26:55;7.93;;;2.42;;
52744;SDS011;38637;49.984;20.426;2023-04-24T11:29:23;5.18;;;2.70;;
52744;SDS011;38637;49.984;20.426;2023-04-24T11:32:17;5.47;;;2.25;;
52744;SDS011;38637;49.984;20.426;2023-04-24T11:34:47;6.22;;;2.05;;
52744;SDS011;38637;49.984;20.426;2023-04-24T11:37:13;3.05;;;2.33;;
52744;SDS011;38637;49.984;20.426;2023-04-24T11:39:39;3.58;;;1.70;;
52744;SDS011;38637;49.984;20.426;2023-04-24T11:42:05;7.10;;;2.30;;
52744;SDS011;38637;49.984;20.426;2023-04-24T11:44:33;2.63;;;2.08;;
52744;SDS011;38637;49.984;20.426;2023-04-24T11:46:59;3.85;;;2.25;;
52744;SDS011;38637;49.984;20.426;2023-04-24T11:49:24;6.20;;;1.80;;
52744;SDS011;38637;49.984;20.426;2023-04-24T11:51:50;4.40;;;1.73;;
52744;SDS011;38637;49.984;20.426;2023-04-24T11:54:15;9.77;;;1.97;;
52744;SDS011;38637;49.984;20.426;2023-04-24T11:56:44;6.90;;;2.03;;
52744;SDS011;38637;49.984;20.426;2023-04-24T11:59:11;3.40;;;1.88;;
52744;SDS011;38637;49.984;20.426;2023-04-24T12:01:43;5.87;;;1.93;;
52744;SDS011;38637;49.984;20.426;2023-04-24T12:04:12;3.05;;;1.92;;
52744;SDS011;38637;49.984;20.426;2023-04-24T12:06:38;2.47;;;1.65;;
52744;SDS011;38637;49.984;20.426;2023-04-24T12:09:04;5.27;;;2.07;;
52744;SDS011;38637;49.984;20.426;2023-04-24T12:11:29;5.03;;;2.10;;
52744;SDS011;38637;49.984;20.426;2023-04-24T12:13:55;3.23;;;1.80;;
52744;SDS011;38637;49.984;20.426;2023-04-24T12:16:20;6.87;;;2.30;;
52744;SDS011;38637;49.984;20.426;2023-04-24T12:18:46;6.10;;;2.10;;
52744;SDS011;38637;49.984;20.426;2023-04-24T12:21:17;5.00;;;2.50;;
52744;SDS011;38637;49.984;20.426;2023-04-24T12:23:45;4.60;;;2.00;;
52744;SDS011;38637;49.984;20.426;2023-04-24T12:26:11;5.10;;;2.43;;
52744;SDS011;38637;49.984;20.426;2023-04-24T12:28:47;3.15;;;2.20;;
52744;SDS011;38637;49.984;20.426;2023-04-24T12:31:16;4.78;;;2.40;;
52744;SDS011;38637;49.984;20.426;2023-04-24T12:33:42;4.85;;;2.88;;
52744;SDS011;38637;49.984;20.426;2023-04-24T12:36:09;9.32;;;2.42;;
52744;SDS011;38637;49.984;20.426;2023-04-24T12:38:38;5.28;;;2.53;;
52744;SDS011;38637;49.984;20.426;2023-04-24T12:41:09;5.85;;;2.20;;
52744;SDS011;38637;49.984;20.426;2023-04-24T12:43:36;5.90;;;2.47;;
52744;SDS011;38637;49.984;20.426;2023-04-24T12:46:02;3.45;;;2.38;;
52744;SDS011;38637;49.984;20.426;2023-04-24T12:48:28;5.15;;;2.25;;
52744;SDS011;38637;49.984;20.426;2023-04-24T12:50:54;5.53;;;2.38;;
52744;SDS011;38637;49.984;20.426;2023-04-24T12:53:22;4.20;;;2.75;;
52744;SDS011;38637;49.984;20.426;2023-04-24T12:55:47;5.50;;;2.30;;
52744;SDS011;38637;49.984;20.426;2023-04-24T12:58:18;5.22;;;2.72;;
52744;SDS011;38637;49.984;20.426;2023-04-24T13:00:43;9.73;;;3.08;;
52744;SDS011;38637;49.984;20.426;2023-04-24T13:03:10;5.22;;;2.25;;
52744;SDS011;38637;49.984;20.426;2023-04-24T13:05:36;11.60;;;2.75;;
52744;SDS011;38637;49.984;20.426;2023-04-24T13:08:01;5.70;;;2.77;;
52744;SDS011;38637;49.984;20.426;2023-04-24T13:10:27;7.43;;;3.00;;
52744;SDS011;38637;49.984;20.426;2023-04-24T13:12:52;15.73;;;3.60;;
52744;SDS011;38637;49.984;20.426;2023-04-24T13:15:18;9.80;;;2.80;;
52744;SDS011;38637;49.984;20.426;2023-04-24T13:17:43;12.57;;;3.67;;
52744;SDS011;38637;49.984;20.426;2023-04-24T13:20:08;6.00;;;2.90;;
52744;SDS011;38637;49.984;20.426;2023-04-24T13:22:34;5.20;;;2.47;;
52744;SDS011;38637;49.984;20.426;2023-04-24T13:27:26;5.45;;;2.72;;
52744;SDS011;38637;49.984;20.426;2023-04-24T13:29:51;17.67;;;2.70;;
52744;SDS011;38637;49.984;20.426;2023-04-24T13:32:16;10.57;;;3.10;;
52744;SDS011;38637;49.984;20.426;2023-04-24T13:34:42;4.03;;;2.70;;
52744;SDS011;38637;49.984;20.426;2023-04-24T13:37:07;5.83;;;3.47;;
52744;SDS011;38637;49.984;20.426;2023-04-24T13:39:32;3.80;;;2.80;;
52744;SDS011;38637;49.984;20.426;2023-04-24T13:41:58;10.07;;;2.70;;
52744;SDS011;38637;49.984;20.426;2023-04-24T13:44:23;6.43;;;2.83;;
52744;SDS011;38637;49.984;20.426;2023-04-24T13:46:50;5.97;;;2.70;;
52744;SDS011;38637;49.984;20.426;2023-04-24T13:49:18;10.35;;;2.50;;
52744;SDS011;38637;49.984;20.426;2023-04-24T13:51:44;7.88;;;2.33;;
52744;SDS011;38637;49.984;20.426;2023-04-24T13:54:10;4.32;;;2.30;;
52744;SDS011;38637;49.984;20.426;2023-04-24T13:56:36;20.13;;;2.87;;
52744;SDS011;38637;49.984;20.426;2023-04-24T13:59:01;10.83;;;2.60;;
52744;SDS011;38637;49.984;20.426;2023-04-24T14:01:27;7.37;;;2.80;;
52744;SDS011;38637;49.984;20.426;2023-04-24T14:03:52;4.80;;;2.37;;
52744;SDS011;38637;49.984;20.426;2023-04-24T14:06:18;4.78;;;2.40;;
52744;SDS011;38637;49.984;20.426;2023-04-24T14:08:44;10.65;;;3.42;;
52744;SDS011;38637;49.984;20.426;2023-04-24T14:11:10;6.10;;;3.00;;
52744;SDS011;38637;49.984;20.426;2023-04-24T14:13:36;8.80;;;3.77;;
52744;SDS011;38637;49.984;20.426;2023-04-24T14:16:02;4.78;;;3.33;;
52744;SDS011;38637;49.984;20.426;2023-04-24T14:18:28;5.43;;;4.30;;
52744;SDS011;38637;49.984;20.426;2023-04-24T14:20:53;4.40;;;3.00;;
52744;SDS011;38637;49.984;20.426;2023-04-24T14:23:19;4.73;;;2.70;;
52744;SDS011;38637;49.984;20.426;2023-04-24T14:25:45;5.25;;;3.53;;
52744;SDS011;38637;49.984;20.426;2023-04-24T14:28:10;8.27;;;4.05;;
52744;SDS011;38637;49.984;20.426;2023-04-24T14:30:36;4.00;;;3.60;;
52744;SDS011;38637;49.984;20.426;2023-04-24T14:33:02;4.47;;;4.05;;
52744;SDS011;38637;49.984;20.426;2023-04-24T14:35:29;4.90;;;3.20;;
52744;SDS011;38637;49.984;20.426;2023-04-24T14:37:56;5.82;;;2.78;;
52744;SDS011;38637;49.984;20.426;2023-04-24T14:40:21;6.43;;;3.63;;
52744;SDS011;38637;49.984;20.426;2023-04-24T14:42:47;5.80;;;3.63;;
52744;SDS011;38637;49.984;20.426;2023-04-24T14:45:12;5.30;;;3.67;;
52744;SDS011;38637;49.984;20.426;2023-04-24T14:47:37;9.40;;;3.10;;